Terminal Aerodrome Forecast
Issued by NWS

Home | Current Version | Previous Version | Text Only | Print | Product List | Glossary On
Versions: 1 2 3 4 5 6 7 8 9 10 11 12 13 14 15 16 17 18 19 20 21 22 23 24 25 26 27 28 29 30 31 32
000
FTUS46 KLOX 211500 AAA
TAFPRB
TAF AMD
KPRB 211511Z 2115/2212 VRB03KT 2SM BR OVC004
     FM211700 34006KT P6SM BKN035 BKN200
     FM212300 04008KT P6SM BKN100
     FM220300 08006KT 5SM BR BKN050
     FM221000 VRB03KT 4SM BR BKN025=

USA.gov is the U.S. government's official web portal to all federal, state and local government web resources and services.